createdAt,value
2022-11-04T00:01:38.786Z,6.18
2022-11-04T00:04:06.393Z,6.47
2022-11-04T00:06:33.495Z,6.10
2022-11-04T00:09:00.547Z,6.57
2022-11-04T00:11:46.821Z,6.57
2022-11-04T00:14:15.019Z,6.80
2022-11-04T00:17:00.743Z,6.75
2022-11-04T00:19:28.750Z,6.45
2022-11-04T00:22:14.444Z,6.63
2022-11-04T00:24:59.940Z,6.53
2022-11-04T00:27:45.637Z,5.90
2022-11-04T00:30:12.747Z,5.60
2022-11-04T00:32:58.709Z,6.07
2022-11-04T00:35:25.883Z,6.47
2022-11-04T00:37:53.031Z,6.07
2022-11-04T00:40:20.076Z,6.43
2022-11-04T00:42:47.144Z,7.05
2022-11-04T00:45:14.228Z,6.25
2022-11-04T00:47:41.256Z,6.88
2022-11-04T00:50:08.815Z,6.07
2022-11-04T00:52:35.936Z,6.10
2022-11-04T00:55:03.295Z,6.80
2022-11-04T00:57:31.105Z,6.55
2022-11-04T00:59:58.144Z,6.38
2022-11-04T01:02:25.324Z,6.63
2022-11-04T01:04:52.428Z,6.85
2022-11-04T01:07:19.706Z,6.60
2022-11-04T01:09:46.694Z,6.38
2022-11-04T01:12:13.698Z,7.05
2022-11-04T01:14:41.051Z,6.80
2022-11-04T01:17:08.290Z,6.30
2022-11-04T01:19:35.371Z,6.45
2022-11-04T01:22:02.632Z,6.55
2022-11-04T01:24:29.881Z,6.47
2022-11-04T01:26:56.883Z,7.40
2022-11-04T01:29:23.931Z,6.68
2022-11-04T01:31:50.991Z,7.63
2022-11-04T01:34:18.001Z,7.57
2022-11-04T01:36:45.115Z,6.68
2022-11-04T01:39:13.320Z,6.80
2022-11-04T01:41:41.207Z,6.65
2022-11-04T01:44:42.381Z,6.18
2022-11-04T01:47:22.812Z,6.45
2022-11-04T01:49:54.684Z,6.55
2022-11-04T01:52:29.298Z,6.13
2022-11-04T01:54:59.685Z,6.45
2022-11-04T01:57:34.616Z,6.70
2022-11-04T02:00:04.835Z,6.30
2022-11-04T02:02:54.703Z,5.80
2022-11-04T02:05:22.940Z,4.60
2022-11-04T02:07:57.991Z,5.72
2022-11-04T02:10:28.195Z,5.55
2022-11-04T02:12:57.019Z,5.90
2022-11-04T02:15:57.478Z,6.28
2022-11-04T02:18:49.043Z,5.43
2022-11-04T02:21:49.896Z,5.95
2022-11-04T02:24:35.125Z,5.85
2022-11-04T02:27:20.258Z,5.07
2022-11-04T02:30:16.525Z,5.38
2022-11-04T02:32:58.446Z,5.50
2022-11-04T02:36:02.576Z,5.25
2022-11-04T02:38:51.390Z,5.53
2022-11-04T02:41:21.388Z,5.60
2022-11-04T02:44:03.696Z,5.28
2022-11-04T02:46:49.075Z,5.93
2022-11-04T02:49:55.337Z,5.47
2022-11-04T02:52:50.210Z,5.30
2022-11-04T02:55:57.016Z,6.32
2022-11-04T02:58:32.995Z,5.75
2022-11-04T03:01:03.469Z,5.90
2022-11-04T03:03:38.737Z,5.28
2022-11-04T03:06:08.948Z,5.85
2022-11-04T03:08:41.976Z,6.32
2022-11-04T03:11:15.968Z,6.50
2022-11-04T03:13:49.027Z,6.22
2022-11-04T03:16:29.753Z,6.47
2022-11-04T03:19:08.260Z,5.57
2022-11-04T03:21:39.450Z,6.47
2022-11-04T03:24:06.857Z,7.20
2022-11-04T03:26:49.688Z,6.18
2022-11-04T03:29:34.843Z,6.15
2022-11-04T03:32:18.743Z,6.40
2022-11-04T03:34:46.062Z,7.05
2022-11-04T03:37:13.251Z,6.82
2022-11-04T03:39:40.721Z,6.93
2022-11-04T03:42:20.893Z,7.22
2022-11-04T03:44:53.422Z,6.75
2022-11-04T03:47:23.703Z,7.28
2022-11-04T03:49:56.146Z,6.50
2022-11-04T03:52:23.805Z,5.28
2022-11-04T03:54:50.948Z,5.68
2022-11-04T03:57:33.251Z,6.65
2022-11-04T04:00:18.848Z,6.32
2022-11-04T04:02:51.740Z,6.28
2022-11-04T04:05:27.457Z,7.47
2022-11-04T04:08:19.811Z,7.07
2022-11-04T04:11:01.231Z,7.53
2022-11-04T04:13:49.206Z,7.95
2022-11-04T04:16:27.938Z,6.72
2022-11-04T04:18:59.660Z,7.10
2022-11-04T04:21:32.310Z,7.13
2022-11-04T04:24:21.475Z,7.25
2022-11-04T04:27:08.035Z,6.95
2022-11-04T04:29:37.168Z,7.03
2022-11-04T04:32:05.533Z,7.10
2022-11-04T04:34:33.682Z,7.47
2022-11-04T04:37:09.470Z,7.47
2022-11-04T04:40:06.796Z,7.47
2022-11-04T04:42:54.217Z,6.85
2022-11-04T04:45:36.779Z,7.20
2022-11-04T04:48:05.436Z,6.93
2022-11-04T04:50:37.585Z,6.70
2022-11-04T04:53:04.643Z,6.85
2022-11-04T04:55:33.547Z,6.78
2022-11-04T04:58:02.216Z,6.00
2022-11-04T05:00:29.663Z,6.60
2022-11-04T05:02:56.626Z,5.95
2022-11-04T05:05:23.648Z,6.75
2022-11-04T05:07:50.710Z,6.80
2022-11-04T05:10:18.292Z,6.53
2022-11-04T05:13:04.006Z,6.68
2022-11-04T05:15:31.888Z,6.88
2022-11-04T05:18:01.166Z,7.30
2022-11-04T05:20:34.456Z,6.70
2022-11-04T05:23:01.822Z,7.47
2022-11-04T05:25:29.164Z,6.82
2022-11-04T05:28:00.833Z,6.57
2022-11-04T05:30:28.148Z,6.35
2022-11-04T05:32:58.535Z,6.65
2022-11-04T05:35:28.796Z,6.82
2022-11-04T05:37:56.949Z,7.63
2022-11-04T05:40:24.539Z,6.82
2022-11-04T05:42:51.981Z,7.28
2022-11-04T05:45:19.277Z,7.55
2022-11-04T05:47:46.341Z,8.38
2022-11-04T05:50:13.385Z,8.82
2022-11-04T05:52:40.594Z,8.98
2022-11-04T05:55:08.003Z,8.40
2022-11-04T05:57:35.866Z,8.88
2022-11-04T06:00:03.935Z,9.10
2022-11-04T06:02:32.216Z,8.00
2022-11-04T06:04:59.418Z,8.07
2022-11-04T06:07:26.427Z,8.48
2022-11-04T06:09:53.651Z,7.57
2022-11-04T06:12:20.750Z,8.23
2022-11-04T06:14:47.854Z,7.75
2022-11-04T06:17:16.833Z,8.25
2022-11-04T06:19:44.208Z,7.50
2022-11-04T06:22:12.728Z,8.02
2022-11-04T06:24:40.158Z,7.80
2022-11-04T06:27:07.848Z,7.95
2022-11-04T06:29:36.645Z,7.90
2022-11-04T06:32:03.991Z,8.13
2022-11-04T06:34:31.068Z,7.15
2022-11-04T06:36:58.291Z,8.63
2022-11-04T06:39:25.441Z,8.10
2022-11-04T06:41:53.694Z,7.60
2022-11-04T06:44:24.156Z,8.15
2022-11-04T06:46:51.238Z,8.43
2022-11-04T06:49:20.643Z,8.23
2022-11-04T06:51:48.510Z,7.20
2022-11-04T06:54:16.736Z,8.40
2022-11-04T06:56:44.884Z,7.45
2022-11-04T06:59:17.349Z,7.53
2022-11-04T07:01:45.230Z,7.25
2022-11-04T07:04:12.413Z,7.68
2022-11-04T07:06:44.226Z,7.75
2022-11-04T07:09:16.028Z,7.50
2022-11-04T07:11:44.906Z,7.10
2022-11-04T07:14:12.526Z,7.05
2022-11-04T07:16:39.854Z,7.68
2022-11-04T07:19:06.917Z,8.93
2022-11-04T07:21:34.164Z,8.23
2022-11-04T07:24:03.743Z,8.55
2022-11-04T07:26:30.830Z,8.13
2022-11-04T07:29:00.142Z,6.43
2022-11-04T07:31:27.743Z,7.65
2022-11-04T07:33:54.806Z,7.32
2022-11-04T07:36:21.871Z,7.05
2022-11-04T07:38:49.176Z,8.13
2022-11-04T07:41:16.812Z,7.22
2022-11-04T07:43:47.882Z,7.88
2022-11-04T07:46:14.918Z,7.13
2022-11-04T07:48:41.971Z,7.20
2022-11-04T07:51:12.555Z,6.45
2022-11-04T07:53:39.720Z,5.97
2022-11-04T07:56:08.961Z,6.53
2022-11-04T07:58:36.018Z,5.55
2022-11-04T08:01:09.702Z,6.43
2022-11-04T08:03:37.024Z,6.57
2022-11-04T08:06:06.501Z,5.85
2022-11-04T08:08:34.304Z,6.13
2022-11-04T08:11:11.423Z,6.50
2022-11-04T08:13:42.254Z,7.05
2022-11-04T08:16:13.433Z,6.90
2022-11-04T08:18:41.906Z,6.40
2022-11-04T08:21:09.983Z,5.80
2022-11-04T08:23:37.685Z,5.72
2022-11-04T08:26:12.948Z,6.38
2022-11-04T08:28:40.089Z,5.20
2022-11-04T08:31:24.438Z,4.95
2022-11-04T08:33:52.490Z,5.72
2022-11-04T08:36:27.104Z,5.88
2022-11-04T08:38:54.636Z,6.18
2022-11-04T08:41:25.474Z,4.68
2022-11-04T08:43:52.780Z,5.10
2022-11-04T08:46:20.318Z,5.13
2022-11-04T08:48:47.557Z,6.32
2022-11-04T08:51:19.054Z,5.68
2022-11-04T08:53:48.936Z,6.15
2022-11-04T08:56:19.907Z,5.63
2022-11-04T08:58:51.559Z,6.40
2022-11-04T09:01:19.762Z,6.43
2022-11-04T09:03:47.210Z,5.82
2022-11-04T09:06:26.868Z,5.60
2022-11-04T09:09:02.007Z,5.90
2022-11-04T09:11:30.579Z,5.88
2022-11-04T09:14:02.042Z,5.85
2022-11-04T09:16:31.980Z,5.50
2022-11-04T09:18:59.730Z,5.40
2022-11-04T09:21:28.155Z,5.80
2022-11-04T09:23:56.685Z,6.10
2022-11-04T09:26:24.732Z,6.18
2022-11-04T09:28:56.562Z,6.15
2022-11-04T09:31:26.983Z,6.13
2022-11-04T09:33:55.479Z,6.03
2022-11-04T09:36:23.190Z,6.53
2022-11-04T09:38:50.388Z,6.43
2022-11-04T09:41:52.826Z,6.70
2022-11-04T09:44:23.046Z,6.93
2022-11-04T09:46:52.330Z,5.63
2022-11-04T09:49:20.350Z,5.93
2022-11-04T09:51:56.307Z,5.72
2022-11-04T09:54:25.136Z,6.38
2022-11-04T09:56:54.333Z,6.20
2022-11-04T09:59:26.282Z,6.28
2022-11-04T10:01:59.383Z,5.70
2022-11-04T10:07:15.029Z,6.38
2022-11-04T10:09:54.190Z,6.88
2022-11-04T10:12:37.030Z,6.53
2022-11-04T10:15:22.891Z,6.88
2022-11-04T10:18:14.621Z,6.95
2022-11-04T10:21:15.737Z,7.40
2022-11-04T10:23:50.015Z,7.20
2022-11-04T10:26:28.151Z,6.75
2022-11-04T10:29:05.835Z,7.20
2022-11-04T10:31:38.900Z,7.07
2022-11-04T10:36:38.092Z,7.50
2022-11-04T10:39:15.479Z,8.27
2022-11-04T10:41:43.579Z,7.10
2022-11-04T10:44:35.566Z,6.72
2022-11-04T10:47:17.871Z,8.18
2022-11-04T10:50:28.462Z,7.55
2022-11-04T10:53:23.491Z,7.82
2022-11-04T10:58:40.016Z,6.95
2022-11-04T11:01:48.926Z,7.53
2022-11-04T11:04:25.812Z,7.07
2022-11-04T11:06:55.698Z,6.80
2022-11-04T11:09:29.464Z,7.80
2022-11-04T11:12:50.055Z,8.13
2022-11-04T11:15:30.307Z,7.75
2022-11-04T11:20:33.539Z,7.95
2022-11-04T11:23:05.818Z,8.57
2022-11-04T11:25:51.470Z,8.43
2022-11-04T11:28:24.856Z,9.40
2022-11-04T11:30:52.596Z,8.32
2022-11-04T11:33:30.167Z,9.40
2022-11-04T11:36:07.008Z,9.25
2022-11-04T11:38:34.797Z,8.80
2022-11-04T11:41:28.469Z,8.38
2022-11-04T11:46:33.076Z,8.75
2022-11-04T11:49:02.668Z,9.35
2022-11-04T11:51:32.723Z,8.15
2022-11-04T11:54:22.914Z,9.80
2022-11-04T12:02:56.421Z,9.38
2022-11-04T12:11:42.615Z,9.35
2022-11-04T12:14:48.866Z,10.27
2022-11-04T12:17:41.036Z,8.50
2022-11-04T12:20:19.044Z,9.25
2022-11-04T12:22:58.510Z,10.23
2022-11-04T12:26:25.741Z,9.35
2022-11-04T12:29:21.744Z,8.93
2022-11-04T12:31:51.647Z,9.52
2022-11-04T12:34:47.233Z,10.00
2022-11-04T12:37:30.881Z,9.90
2022-11-04T12:40:23.676Z,9.38
2022-11-04T12:43:08.563Z,10.32
2022-11-04T12:45:55.161Z,9.82
2022-11-04T12:48:58.435Z,10.35
2022-11-04T12:51:49.346Z,10.15
2022-11-04T12:54:29.719Z,10.07
2022-11-04T12:57:39.499Z,9.32
2022-11-04T13:00:10.234Z,9.40
2022-11-04T13:02:43.170Z,9.80
2022-11-04T13:05:35.806Z,7.20
2022-11-04T13:08:21.275Z,9.05
2022-11-04T13:11:22.876Z,9.77
2022-11-04T13:14:13.590Z,8.70
2022-11-04T13:16:44.901Z,9.38
2022-11-04T13:19:50.561Z,8.23
2022-11-04T13:22:29.879Z,8.90
2022-11-04T13:25:15.246Z,8.27
2022-11-04T13:27:47.448Z,7.68
2022-11-04T13:30:27.262Z,8.80
2022-11-04T13:33:13.190Z,9.02
2022-11-04T13:35:55.454Z,9.10
2022-11-04T13:38:45.408Z,9.18
2022-11-04T13:41:48.118Z,9.45
2022-11-04T13:44:25.741Z,8.50
2022-11-04T13:46:58.110Z,9.15
2022-11-04T13:49:32.629Z,9.30
2022-11-04T13:52:13.876Z,9.55
2022-11-04T13:55:08.778Z,9.68
2022-11-04T13:57:57.873Z,9.68
2022-11-04T14:00:28.436Z,8.45
2022-11-04T14:03:24.666Z,9.05
2022-11-04T14:06:11.159Z,9.32
2022-11-04T14:09:16.511Z,8.90
2022-11-04T14:12:09.148Z,9.25
2022-11-04T14:15:02.879Z,9.50
2022-11-04T14:17:33.630Z,8.18
2022-11-04T14:20:20.451Z,9.35
2022-11-04T14:22:53.036Z,9.23
2022-11-04T14:25:31.288Z,10.35
2022-11-04T14:28:18.042Z,8.25
2022-11-04T14:30:54.173Z,9.55
2022-11-04T14:33:31.621Z,8.85
2022-11-04T14:36:20.729Z,8.93
2022-11-04T14:39:12.614Z,9.57
2022-11-04T14:41:39.592Z,9.05
2022-11-04T14:44:21.457Z,8.63
2022-11-04T14:46:51.832Z,9.90
2022-11-04T14:49:42.354Z,9.32
2022-11-04T14:52:22.544Z,8.48
2022-11-04T14:54:53.761Z,9.93
2022-11-04T14:57:22.448Z,9.02
2022-11-04T14:59:52.331Z,10.18
2022-11-04T15:02:24.095Z,10.82
2022-11-04T15:04:57.761Z,10.02
2022-11-04T15:07:33.546Z,10.30
2022-11-04T15:10:02.341Z,9.13
2022-11-04T15:12:49.161Z,9.95
2022-11-04T15:15:36.565Z,9.73
2022-11-04T15:18:09.453Z,9.80
2022-11-04T15:20:45.064Z,9.65
2022-11-04T15:23:18.328Z,9.40
2022-11-04T15:28:22.794Z,9.40
2022-11-04T15:31:13.040Z,8.52
2022-11-04T15:33:46.029Z,9.57
2022-11-04T15:36:29.402Z,9.82
2022-11-04T15:41:51.259Z,8.40
2022-11-04T15:44:22.969Z,8.23
2022-11-04T15:46:56.000Z,10.15
2022-11-04T15:49:26.885Z,10.05
2022-11-04T15:52:12.990Z,10.73
2022-11-04T15:54:43.358Z,9.55
2022-11-04T15:57:22.225Z,8.25
2022-11-04T15:59:51.551Z,9.20
2022-11-04T16:02:29.464Z,9.88
2022-11-04T16:05:03.894Z,8.85
2022-11-04T16:07:36.028Z,8.45
2022-11-04T16:10:08.558Z,8.65
2022-11-04T16:12:37.571Z,6.90
2022-11-04T16:15:04.925Z,8.00
2022-11-04T16:17:32.585Z,8.52
2022-11-04T16:20:03.923Z,8.40
2022-11-04T16:22:40.649Z,9.45
2022-11-04T16:25:19.793Z,8.30
2022-11-04T16:27:47.246Z,7.70
2022-11-04T16:30:23.362Z,8.13
2022-11-04T16:32:54.147Z,7.47
2022-11-04T16:35:25.995Z,7.45
2022-11-04T16:37:54.340Z,7.28
2022-11-04T16:40:23.139Z,7.35
2022-11-04T16:42:50.790Z,6.90
2022-11-04T16:45:30.217Z,7.53
2022-11-04T16:47:57.797Z,6.47
2022-11-04T16:50:25.763Z,7.15
2022-11-04T16:52:54.336Z,7.00
2022-11-04T16:55:23.944Z,6.80
2022-11-04T16:58:04.798Z,6.65
2022-11-04T17:00:33.289Z,5.93
2022-11-04T17:03:02.114Z,8.18
2022-11-04T17:05:29.185Z,7.35
2022-11-04T17:08:04.416Z,7.47
2022-11-04T17:10:35.926Z,7.55
2022-11-04T17:13:03.149Z,7.65
2022-11-04T17:15:30.231Z,7.15
2022-11-04T17:17:57.544Z,7.28
2022-11-04T17:20:24.674Z,7.93
2022-11-04T17:22:53.149Z,6.95
2022-11-04T17:25:24.480Z,6.38
2022-11-04T17:27:51.793Z,8.55
2022-11-04T17:30:20.170Z,6.88
2022-11-04T17:32:48.104Z,6.93
2022-11-04T17:35:16.790Z,7.28
2022-11-04T17:37:44.088Z,6.70
2022-11-04T17:40:17.859Z,6.13
2022-11-04T17:43:08.552Z,6.97
2022-11-04T17:45:37.358Z,6.65
2022-11-04T17:48:05.487Z,6.97
2022-11-04T17:50:33.570Z,7.30
2022-11-04T17:53:00.597Z,7.25
2022-11-04T17:55:27.995Z,6.50
2022-11-04T17:57:55.626Z,6.57
2022-11-04T18:00:26.945Z,6.32
2022-11-04T18:02:54.001Z,6.47
2022-11-04T18:05:21.251Z,6.43
2022-11-04T18:07:48.395Z,5.72
2022-11-04T18:10:15.488Z,6.38
2022-11-04T18:12:42.683Z,5.68
2022-11-04T18:15:14.263Z,5.28
2022-11-04T18:17:42.964Z,6.85
2022-11-04T18:20:14.311Z,6.32
2022-11-04T18:22:42.494Z,6.10
2022-11-04T18:25:12.439Z,4.80
2022-11-04T18:27:39.550Z,5.88
2022-11-04T18:30:07.303Z,5.40
2022-11-04T18:32:34.435Z,5.70
2022-11-04T18:35:01.588Z,5.40
2022-11-04T18:37:30.274Z,5.40
2022-11-04T18:39:57.392Z,5.72
2022-11-04T18:42:24.885Z,5.60
2022-11-04T18:44:54.071Z,5.82
2022-11-04T18:47:21.636Z,6.47
2022-11-04T18:49:49.697Z,6.13
2022-11-04T18:52:16.746Z,5.65
2022-11-04T18:54:44.353Z,5.57
2022-11-04T18:57:12.143Z,6.15
2022-11-04T18:59:39.258Z,6.15
2022-11-04T19:02:07.346Z,4.75
2022-11-04T19:04:34.466Z,5.43
2022-11-04T19:07:01.832Z,5.53
2022-11-04T19:12:35.725Z,5.07
2022-11-04T19:15:04.581Z,6.00
2022-11-04T19:17:32.026Z,4.70
2022-11-04T19:19:59.131Z,5.20
2022-11-04T19:22:26.230Z,4.68
2022-11-04T19:24:53.474Z,5.72
2022-11-04T19:27:23.152Z,5.55
2022-11-04T19:29:50.357Z,5.35
2022-11-04T19:32:17.465Z,5.75
2022-11-04T19:34:44.840Z,5.45
2022-11-04T19:37:12.194Z,5.57
2022-11-04T19:39:39.630Z,5.28
2022-11-04T19:42:25.612Z,5.35
2022-11-04T19:44:52.615Z,5.20
2022-11-04T19:47:19.599Z,5.50
2022-11-04T19:49:46.645Z,5.43
2022-11-04T19:52:14.543Z,5.88
2022-11-04T19:54:41.597Z,4.82
2022-11-04T19:57:08.576Z,4.57
2022-11-04T19:59:35.566Z,6.60
2022-11-04T20:02:02.802Z,5.80
2022-11-04T20:04:29.859Z,5.40
2022-11-04T20:06:56.879Z,4.97
2022-11-04T20:09:26.132Z,5.80
2022-11-04T20:12:11.651Z,5.03
2022-11-04T20:14:38.673Z,5.30
2022-11-04T20:17:07.069Z,5.20
2022-11-04T20:19:35.309Z,6.03
2022-11-04T20:22:02.940Z,5.20
2022-11-04T20:24:30.300Z,6.35
2022-11-04T20:26:57.774Z,5.40
2022-11-04T20:29:24.909Z,5.30
2022-11-04T20:31:51.931Z,5.72
2022-11-04T20:34:18.986Z,5.70
2022-11-04T20:36:46.122Z,5.57
2022-11-04T20:39:15.603Z,5.53
2022-11-04T20:41:46.279Z,5.05
2022-11-04T20:44:15.065Z,5.68
2022-11-04T20:46:43.319Z,5.85
2022-11-04T20:49:11.668Z,5.75
2022-11-04T20:51:50.224Z,5.97
2022-11-04T20:54:19.493Z,5.88
2022-11-04T20:56:46.696Z,5.60
2022-11-04T20:59:14.423Z,5.40
2022-11-04T21:01:44.731Z,6.00
2022-11-04T21:04:20.939Z,5.82
2022-11-04T21:06:49.828Z,5.95
2022-11-04T21:09:18.900Z,5.50
2022-11-04T21:11:46.354Z,5.82
2022-11-04T21:14:16.276Z,6.35
2022-11-04T21:16:43.901Z,5.70
2022-11-04T21:19:12.235Z,6.00
2022-11-04T21:21:44.136Z,5.35
2022-11-04T21:24:13.805Z,5.82
2022-11-04T21:26:41.025Z,5.18
2022-11-04T21:29:11.349Z,5.43
2022-11-04T21:31:38.913Z,4.57
2022-11-04T21:34:06.135Z,5.38
2022-11-04T21:36:33.474Z,5.45
2022-11-04T21:39:01.081Z,5.20
2022-11-04T21:41:30.032Z,5.80
2022-11-04T21:43:58.943Z,5.13
2022-11-04T21:46:27.500Z,6.38
2022-11-04T21:48:55.859Z,5.20
2022-11-04T21:51:26.702Z,5.30
2022-11-04T21:53:54.392Z,5.57
2022-11-04T21:56:27.115Z,5.60
2022-11-04T21:58:55.419Z,5.70
2022-11-04T22:01:27.326Z,5.32
2022-11-04T22:03:56.789Z,5.25
2022-11-04T22:06:26.622Z,5.15
2022-11-04T22:08:56.460Z,5.10
2022-11-04T22:11:26.194Z,5.22
2022-11-04T22:13:58.421Z,5.35
2022-11-04T22:16:28.180Z,5.82
2022-11-04T22:18:57.280Z,5.43
2022-11-04T22:21:25.638Z,5.35
2022-11-04T22:23:53.570Z,5.10
2022-11-04T22:26:24.582Z,5.43
2022-11-04T22:28:52.329Z,5.63
2022-11-04T22:31:31.204Z,6.43
2022-11-04T22:33:59.884Z,7.05
2022-11-04T22:36:27.677Z,6.30
2022-11-04T22:38:55.048Z,6.47
2022-11-04T22:41:25.761Z,5.93
2022-11-04T22:43:52.869Z,6.72
2022-11-04T22:46:24.282Z,7.15
2022-11-04T22:48:51.366Z,6.82
2022-11-04T22:51:19.143Z,6.05
2022-11-04T22:53:50.095Z,5.97
2022-11-04T22:56:19.732Z,6.53
2022-11-04T22:58:46.911Z,6.45
2022-11-04T23:01:15.557Z,7.47
2022-11-04T23:03:42.749Z,8.05
2022-11-04T23:06:10.794Z,8.45
2022-11-04T23:08:40.174Z,6.88
2022-11-04T23:11:31.936Z,7.22
2022-11-04T23:14:20.929Z,7.75
2022-11-04T23:17:10.874Z,8.73
2022-11-04T23:19:39.046Z,8.60
2022-11-04T23:22:26.146Z,8.05
2022-11-04T23:25:06.046Z,8.18
2022-11-04T23:27:53.265Z,7.70
2022-11-04T23:30:24.273Z,7.70
2022-11-04T23:32:56.961Z,7.53
2022-11-04T23:35:54.908Z,6.97
2022-11-04T23:38:23.017Z,7.20
2022-11-04T23:41:13.140Z,7.00
2022-11-04T23:43:40.495Z,6.53
2022-11-04T23:46:26.363Z,5.57
2022-11-04T23:49:12.718Z,4.68
2022-11-04T23:51:59.197Z,6.28
2022-11-04T23:54:44.658Z,6.03
2022-11-04T23:57:39.384Z,6.68
